createdAt,value
2019-05-21T00:01:42.772Z,5.03
2019-05-21T00:04:27.143Z,4.95
2019-05-21T00:06:43.990Z,5.03
2019-05-21T00:09:13.786Z,5.03
2019-05-21T00:11:44.045Z,4.83
2019-05-21T00:14:14.963Z,5.33
2019-05-21T00:16:44.903Z,5.20
2019-05-21T00:19:14.702Z,5.58
2019-05-21T00:21:45.041Z,4.85
2019-05-21T00:24:14.830Z,4.90
2019-05-21T00:26:44.741Z,4.58
2019-05-21T00:29:51.563Z,4.75
2019-05-21T00:32:58.344Z,5.08
2019-05-21T00:36:05.010Z,5.20
2019-05-21T00:39:12.372Z,4.83
2019-05-21T00:42:00.199Z,4.42
2019-05-21T00:44:35.931Z,4.83
2019-05-21T00:47:08.166Z,4.75
2019-05-21T00:49:38.019Z,4.72
2019-05-21T00:52:09.389Z,4.83
2019-05-21T00:54:39.644Z,4.22
2019-05-21T00:57:09.492Z,4.55
2019-05-21T00:59:39.293Z,4.78
2019-05-21T01:02:09.496Z,4.60
2019-05-21T01:04:39.294Z,4.47
2019-05-21T01:07:09.463Z,4.55
2019-05-21T01:09:39.283Z,4.90
2019-05-21T01:12:09.437Z,5.95
2019-05-21T01:14:39.228Z,5.53
2019-05-21T01:17:09.266Z,5.20
2019-05-21T01:19:39.045Z,4.92
2019-05-21T01:22:09.008Z,5.53
2019-05-21T01:24:39.136Z,5.67
2019-05-21T01:27:09.151Z,5.83
2019-05-21T01:29:38.951Z,6.00
2019-05-21T01:32:08.902Z,5.67
2019-05-21T01:34:38.892Z,5.72
2019-05-21T01:37:08.911Z,5.62
2019-05-21T01:39:38.954Z,5.42
2019-05-21T01:42:08.923Z,5.05
2019-05-21T01:44:38.840Z,5.22
2019-05-21T01:47:08.908Z,5.00
2019-05-21T01:49:38.707Z,5.95
2019-05-21T01:52:08.904Z,5.50
2019-05-21T01:54:38.739Z,5.45
2019-05-21T01:57:08.541Z,5.70
2019-05-21T01:59:38.598Z,5.75
2019-05-21T02:02:08.614Z,6.50
2019-05-21T02:04:38.576Z,7.20
2019-05-21T02:07:08.521Z,6.53
2019-05-21T02:09:56.422Z,7.10
2019-05-21T02:12:27.166Z,8.10
2019-05-21T02:14:57.514Z,7.30
2019-05-21T02:17:27.403Z,7.50
2019-05-21T02:19:57.683Z,7.80
2019-05-21T02:22:28.358Z,7.83
2019-05-21T02:24:58.618Z,7.95
2019-05-21T02:27:28.411Z,7.97
2019-05-21T02:29:58.188Z,8.10
2019-05-21T02:32:28.462Z,8.20
2019-05-21T02:34:58.245Z,7.67
2019-05-21T02:37:28.066Z,7.60
2019-05-21T02:39:58.216Z,7.87
2019-05-21T02:42:28.438Z,7.90
2019-05-21T02:44:58.238Z,8.25
2019-05-21T02:47:28.052Z,8.63
2019-05-21T02:49:57.945Z,8.23
2019-05-21T02:52:29.073Z,8.40
2019-05-21T02:54:59.807Z,8.23
2019-05-21T02:57:43.290Z,9.15
2019-05-21T03:00:22.308Z,7.92
2019-05-21T03:02:53.097Z,8.75
2019-05-21T03:05:23.383Z,7.67
2019-05-21T03:07:53.217Z,8.03
2019-05-21T03:10:23.023Z,8.00
2019-05-21T03:12:53.380Z,7.90
2019-05-21T03:15:23.218Z,7.45
2019-05-21T03:17:53.028Z,7.60
2019-05-21T03:20:22.984Z,7.83
2019-05-21T03:22:52.825Z,7.40
2019-05-21T03:25:23.128Z,7.78
2019-05-21T03:27:52.947Z,7.20
2019-05-21T03:30:23.082Z,7.78
2019-05-21T03:32:53.081Z,7.95
2019-05-21T03:35:22.875Z,7.95
2019-05-21T03:37:52.794Z,8.08
2019-05-21T03:40:22.871Z,7.97
2019-05-21T03:42:53.681Z,7.72
2019-05-21T03:45:23.534Z,8.33
2019-05-21T03:47:53.439Z,7.97
2019-05-21T03:50:23.241Z,8.68
2019-05-21T03:52:53.500Z,8.23
2019-05-21T03:55:23.328Z,8.70
2019-05-21T03:57:53.089Z,8.18
2019-05-21T04:00:23.188Z,7.53
2019-05-21T04:02:53.033Z,7.47
2019-05-21T04:05:28.909Z,8.25
2019-05-21T04:07:58.690Z,8.28
2019-05-21T04:10:28.553Z,8.20
2019-05-21T04:13:08.436Z,8.18
2019-05-21T04:15:57.737Z,8.10
2019-05-21T04:18:36.088Z,7.33
2019-05-21T04:21:05.931Z,8.00
2019-05-21T04:23:35.860Z,7.25
2019-05-21T04:26:05.700Z,7.72
2019-05-21T04:28:35.574Z,7.78
2019-05-21T04:31:05.634Z,8.15
2019-05-21T04:33:35.572Z,8.40
2019-05-21T04:36:05.365Z,8.10
2019-05-21T04:38:35.648Z,8.55
2019-05-21T04:41:05.476Z,8.50
2019-05-21T04:43:36.253Z,8.30
2019-05-21T04:46:06.055Z,8.00
2019-05-21T04:48:35.874Z,7.83
2019-05-21T04:51:05.698Z,6.92
2019-05-21T04:53:35.564Z,6.95
2019-05-21T04:56:05.487Z,6.70
2019-05-21T04:58:35.277Z,6.30
2019-05-21T05:01:05.380Z,6.22
2019-05-21T05:03:35.352Z,6.42
2019-05-21T05:06:05.148Z,5.97
2019-05-21T05:08:35.271Z,5.97
2019-05-21T05:11:05.098Z,6.03
2019-05-21T05:13:35.056Z,5.60
2019-05-21T05:16:05.315Z,6.53
2019-05-21T05:18:35.168Z,6.42
2019-05-21T05:21:04.956Z,6.75
2019-05-21T05:23:35.266Z,6.28
2019-05-21T05:26:05.141Z,6.53
2019-05-21T05:28:34.880Z,6.97
2019-05-21T05:31:04.923Z,6.67
2019-05-21T05:33:34.753Z,6.40
2019-05-21T05:36:04.552Z,6.12
2019-05-21T05:38:35.166Z,6.37
2019-05-21T05:41:05.201Z,6.00
2019-05-21T05:43:35.147Z,5.50
2019-05-21T05:46:05.040Z,4.92
2019-05-21T05:48:36.523Z,4.65
2019-05-21T05:51:08.496Z,3.87
2019-05-21T05:53:56.454Z,4.30
2019-05-21T05:56:28.511Z,4.00
2019-05-21T05:58:58.477Z,4.75
2019-05-21T06:01:30.182Z,4.15
2019-05-21T06:04:00.089Z,4.80
2019-05-21T06:06:29.934Z,4.53
2019-05-21T06:08:59.787Z,4.45
2019-05-21T06:11:29.583Z,3.90
2019-05-21T06:13:59.806Z,3.37
2019-05-21T06:16:29.639Z,3.17
2019-05-21T06:19:00.333Z,3.08
2019-05-21T06:21:30.117Z,3.05
2019-05-21T06:23:59.936Z,2.85
2019-05-21T06:26:29.788Z,2.42
2019-05-21T06:28:59.579Z,2.10
2019-05-21T06:31:30.323Z,2.33
2019-05-21T06:34:01.042Z,2.25
2019-05-21T06:36:30.824Z,2.05
2019-05-21T06:39:00.637Z,2.15
2019-05-21T06:41:30.815Z,2.00
2019-05-21T06:44:00.974Z,2.17
2019-05-21T06:46:30.803Z,1.90
2019-05-21T06:49:00.812Z,1.82
2019-05-21T06:51:30.616Z,1.80
2019-05-21T06:54:00.529Z,2.00
2019-05-21T06:56:30.721Z,1.60
2019-05-21T06:59:00.495Z,1.98
2019-05-21T07:01:30.374Z,1.98
2019-05-21T07:04:00.768Z,1.85
2019-05-21T07:06:30.563Z,1.85
2019-05-21T07:09:00.384Z,1.87
2019-05-21T07:11:30.719Z,1.98
2019-05-21T07:14:00.591Z,1.75
2019-05-21T07:16:30.433Z,1.80
2019-05-21T07:19:00.216Z,2.27
2019-05-21T07:21:30.434Z,1.65
2019-05-21T07:24:00.378Z,1.50
2019-05-21T07:26:30.222Z,1.50
2019-05-21T07:29:00.241Z,1.55
2019-05-21T07:31:30.066Z,1.40
2019-05-21T07:34:00.003Z,1.42
2019-05-21T07:36:31.813Z,1.30
2019-05-21T07:39:01.643Z,1.05
2019-05-21T07:41:31.552Z,1.20
2019-05-21T07:44:01.358Z,1.20
2019-05-21T07:46:31.175Z,1.30
2019-05-21T07:49:01.787Z,1.20
2019-05-21T07:51:31.603Z,1.25
2019-05-21T07:54:01.670Z,1.20
2019-05-21T07:56:31.463Z,1.52
2019-05-21T07:59:02.158Z,1.50
2019-05-21T08:01:32.287Z,1.55
2019-05-21T08:04:02.103Z,1.17
2019-05-21T08:06:32.353Z,1.42
2019-05-21T08:09:13.354Z,1.17
2019-05-21T08:11:34.052Z,1.22
2019-05-21T08:14:05.705Z,1.30
2019-05-21T08:16:36.499Z,1.30
2019-05-21T08:19:06.303Z,1.37
2019-05-21T08:21:37.172Z,1.10
2019-05-21T08:24:07.228Z,1.20
2019-05-21T08:26:38.758Z,0.90
2019-05-21T08:29:09.413Z,1.00
2019-05-21T08:31:39.517Z,1.20
2019-05-21T08:34:10.477Z,1.00
2019-05-21T08:36:40.260Z,1.10
2019-05-21T08:39:11.168Z,1.20
2019-05-21T08:41:40.916Z,1.20
2019-05-21T08:44:10.708Z,1.20
2019-05-21T08:46:41.317Z,1.20
2019-05-21T08:49:11.115Z,0.90
2019-05-21T08:51:41.769Z,1.15
2019-05-21T08:54:11.634Z,1.00
2019-05-21T08:56:41.422Z,0.98
2019-05-21T08:59:11.582Z,1.10
2019-05-21T09:01:41.487Z,1.50
2019-05-21T09:04:11.522Z,1.10
2019-05-21T09:06:41.566Z,1.27
2019-05-21T09:09:11.404Z,1.30
2019-05-21T09:11:41.206Z,1.15
2019-05-21T09:14:11.399Z,1.05
2019-05-21T09:16:41.264Z,1.40
2019-05-21T09:19:11.048Z,1.22
2019-05-21T09:21:41.295Z,1.00
2019-05-21T09:24:11.212Z,1.05
2019-05-21T09:26:41.084Z,1.20
2019-05-21T09:29:11.415Z,1.42
2019-05-21T09:31:41.196Z,1.17
2019-05-21T09:34:11.332Z,1.00
2019-05-21T09:36:41.113Z,0.93
2019-05-21T09:39:11.112Z,1.10
2019-05-21T09:41:40.953Z,1.10
2019-05-21T09:44:11.329Z,1.05
2019-05-21T09:46:41.153Z,1.00
2019-05-21T09:49:10.925Z,1.10
2019-05-21T09:51:41.390Z,1.00
2019-05-21T09:54:11.324Z,1.37
2019-05-21T09:56:41.187Z,0.82
2019-05-21T09:59:15.883Z,1.00
2019-05-21T10:01:50.058Z,1.00
2019-05-21T10:04:21.132Z,0.70
2019-05-21T10:06:51.172Z,0.98
2019-05-21T10:09:21.333Z,0.70
2019-05-21T10:11:51.177Z,1.05
2019-05-21T10:14:21.412Z,1.00
2019-05-21T10:16:51.282Z,0.90
2019-05-21T10:19:21.085Z,1.40
2019-05-21T10:21:50.868Z,1.12
2019-05-21T10:24:21.471Z,1.40
2019-05-21T10:26:51.295Z,1.02
2019-05-21T10:29:21.089Z,1.15
2019-05-21T10:31:50.882Z,0.80
2019-05-21T10:34:21.736Z,0.80
2019-05-21T10:36:52.146Z,0.80
2019-05-21T10:39:23.038Z,1.25
2019-05-21T10:41:53.258Z,0.82
2019-05-21T10:44:23.376Z,0.80
2019-05-21T10:46:53.460Z,0.62
2019-05-21T10:49:23.294Z,0.70
2019-05-21T10:51:53.182Z,0.50
2019-05-21T10:54:23.008Z,0.78
2019-05-21T10:56:52.905Z,0.80
2019-05-21T10:59:22.703Z,1.00
2019-05-21T11:01:57.253Z,0.88
2019-05-21T11:04:37.900Z,0.75
2019-05-21T11:07:09.838Z,0.80
2019-05-21T11:09:40.299Z,0.60
2019-05-21T11:12:10.586Z,0.70
2019-05-21T11:14:40.788Z,0.60
2019-05-21T11:17:12.024Z,0.70
2019-05-21T11:19:42.394Z,0.70
2019-05-21T11:22:12.670Z,0.70
2019-05-21T11:24:42.443Z,0.80
2019-05-21T11:27:12.648Z,0.90
2019-05-21T11:29:42.443Z,0.75
2019-05-21T11:32:12.956Z,0.50
2019-05-21T11:34:42.796Z,0.70
2019-05-21T11:37:13.009Z,0.90
2019-05-21T11:39:42.798Z,0.78
2019-05-21T11:42:12.910Z,0.80
2019-05-21T11:44:42.747Z,0.70
2019-05-21T11:47:13.102Z,0.82
2019-05-21T11:49:43.535Z,0.80
2019-05-21T11:52:13.496Z,0.82
2019-05-21T11:54:43.447Z,1.00
2019-05-21T11:57:13.336Z,0.80
2019-05-21T11:59:43.130Z,0.50
2019-05-21T12:02:13.467Z,0.53
2019-05-21T12:04:43.310Z,0.70
2019-05-21T12:07:13.310Z,0.70
2019-05-21T12:09:43.539Z,0.57
2019-05-21T12:12:14.320Z,0.42
2019-05-21T12:14:44.176Z,0.62
2019-05-21T12:17:14.514Z,0.50
2019-05-21T12:19:44.340Z,0.40
2019-05-21T12:22:14.607Z,1.00
2019-05-21T12:24:44.394Z,0.75
2019-05-21T12:27:14.296Z,0.50
2019-05-21T12:29:44.807Z,0.60
2019-05-21T12:32:15.101Z,0.53
2019-05-21T12:34:44.952Z,0.55
2019-05-21T12:37:14.783Z,0.70
2019-05-21T12:39:44.861Z,0.50
2019-05-21T12:42:14.961Z,0.70
2019-05-21T12:44:44.776Z,0.50
2019-05-21T12:47:15.409Z,0.70
2019-05-21T12:49:45.240Z,0.65
2019-05-21T12:52:15.098Z,0.80
2019-05-21T12:54:45.125Z,0.50
2019-05-21T12:57:14.940Z,0.60
2019-05-21T12:59:44.748Z,0.55
2019-05-21T13:02:15.839Z,0.53
2019-05-21T13:04:45.683Z,0.60
2019-05-21T13:07:16.662Z,0.62
2019-05-21T13:09:47.516Z,0.62
2019-05-21T13:12:17.355Z,0.68
2019-05-21T13:14:47.539Z,0.78
2019-05-21T13:17:17.606Z,0.50
2019-05-21T13:19:47.675Z,0.70
2019-05-21T13:22:17.520Z,0.78
2019-05-21T13:24:47.984Z,0.70
2019-05-21T13:27:18.541Z,0.68
2019-05-21T13:29:49.133Z,0.88
2019-05-21T13:32:22.296Z,0.90
2019-05-21T13:34:52.111Z,0.70
2019-05-21T13:37:21.900Z,0.80
2019-05-21T13:39:52.148Z,0.65
2019-05-21T13:42:23.027Z,0.60
2019-05-21T13:44:53.501Z,0.70
2019-05-21T13:47:24.590Z,0.60
2019-05-21T13:49:54.433Z,0.80
2019-05-21T13:52:24.443Z,0.90
2019-05-21T13:54:54.625Z,1.07
2019-05-21T13:57:24.455Z,0.80
2019-05-21T13:59:54.258Z,0.98
2019-05-21T14:02:27.406Z,0.90
2019-05-21T14:04:57.262Z,1.22
2019-05-21T14:07:27.037Z,0.95
2019-05-21T14:10:13.433Z,0.82
2019-05-21T14:12:31.325Z,0.80
2019-05-21T14:15:01.224Z,0.90
2019-05-21T14:17:30.981Z,1.02
2019-05-21T14:20:01.669Z,0.90
2019-05-21T14:22:36.031Z,0.80
2019-05-21T14:25:02.957Z,0.70
2019-05-21T14:27:43.865Z,0.90
2019-05-21T14:30:07.444Z,0.80
2019-05-21T14:32:37.415Z,0.75
2019-05-21T14:35:07.631Z,0.72
2019-05-21T14:37:38.670Z,0.80
2019-05-21T14:40:10.655Z,0.90
2019-05-21T14:42:58.089Z,0.82
2019-05-21T14:45:13.948Z,0.95
2019-05-21T14:47:44.366Z,0.80
2019-05-21T14:50:14.902Z,0.90
2019-05-21T14:52:45.931Z,0.90
2019-05-21T14:55:16.954Z,1.00
2019-05-21T14:57:46.768Z,0.90
2019-05-21T15:00:19.110Z,0.80
2019-05-21T15:02:49.356Z,1.07
2019-05-21T15:05:19.417Z,1.00
2019-05-21T15:07:49.900Z,0.80
2019-05-21T15:10:19.814Z,0.90
2019-05-21T15:12:51.463Z,1.10
2019-05-21T15:15:21.263Z,0.70
2019-05-21T15:17:51.724Z,0.72
2019-05-21T15:20:29.422Z,0.90
2019-05-21T15:23:01.836Z,0.62
2019-05-21T15:25:31.711Z,0.70
2019-05-21T15:28:01.548Z,0.80
2019-05-21T15:30:31.377Z,0.93
2019-05-21T15:33:01.723Z,0.70
2019-05-21T15:35:31.723Z,0.90
2019-05-21T15:38:01.544Z,0.70
2019-05-21T15:40:33.256Z,0.88
2019-05-21T15:43:07.018Z,0.60
2019-05-21T15:45:38.022Z,0.90
2019-05-21T15:48:09.076Z,1.00
2019-05-21T15:50:39.136Z,0.78
2019-05-21T15:53:08.950Z,0.90
2019-05-21T15:55:38.740Z,1.00
2019-05-21T15:58:08.660Z,0.80
2019-05-21T16:00:39.174Z,0.90
2019-05-21T16:03:10.176Z,1.07
2019-05-21T16:05:40.015Z,0.90
2019-05-21T16:08:10.129Z,0.90
2019-05-21T16:10:40.018Z,0.90
2019-05-21T16:13:11.868Z,0.80
2019-05-21T16:15:41.663Z,1.00
2019-05-21T16:18:12.637Z,0.80
2019-05-21T16:20:42.845Z,0.70
2019-05-21T16:23:13.954Z,0.85
2019-05-21T16:25:43.779Z,0.70
2019-05-21T16:28:13.675Z,0.78
2019-05-21T16:30:44.374Z,0.70
2019-05-21T16:33:15.533Z,0.90
2019-05-21T16:35:45.374Z,1.07
2019-05-21T16:38:15.291Z,1.07
2019-05-21T16:40:45.118Z,0.60
2019-05-21T16:43:16.994Z,0.70
2019-05-21T16:45:46.778Z,0.60
2019-05-21T16:48:17.671Z,0.90
2019-05-21T16:50:47.566Z,1.10
2019-05-21T16:53:17.537Z,0.85
2019-05-21T16:55:47.717Z,0.82
2019-05-21T16:58:17.569Z,0.80
2019-05-21T17:00:47.436Z,0.80
2019-05-21T17:03:17.676Z,0.72
2019-05-21T17:05:47.616Z,0.70
2019-05-21T17:08:17.412Z,0.80
2019-05-21T17:10:48.020Z,1.00
2019-05-21T17:13:17.995Z,0.80
2019-05-21T17:15:47.772Z,1.05
2019-05-21T17:18:17.982Z,0.78
2019-05-21T17:20:47.804Z,1.02
2019-05-21T17:23:17.952Z,0.65
2019-05-21T17:25:47.732Z,1.10
2019-05-21T17:28:17.944Z,0.93
2019-05-21T17:30:47.802Z,1.10
2019-05-21T17:33:17.887Z,1.25
2019-05-21T17:35:47.708Z,1.00
2019-05-21T17:38:17.506Z,0.82
2019-05-21T17:40:47.742Z,0.85
2019-05-21T17:43:17.560Z,1.00
2019-05-21T17:45:47.339Z,1.10
2019-05-21T17:48:17.980Z,1.00
2019-05-21T17:50:47.881Z,1.40
2019-05-21T17:53:17.960Z,1.10
2019-05-21T17:55:47.767Z,1.32
2019-05-21T17:58:17.683Z,0.98
2019-05-21T18:00:49.108Z,1.10
2019-05-21T18:03:19.948Z,0.85
2019-05-21T18:05:52.280Z,1.00
2019-05-21T18:08:22.060Z,1.02
2019-05-21T18:10:54.036Z,1.00
2019-05-21T18:13:24.914Z,1.20
2019-05-21T18:15:56.963Z,1.00
2019-05-21T18:18:29.162Z,1.00
2019-05-21T18:21:00.032Z,0.90
2019-05-21T18:23:31.280Z,0.90
2019-05-21T18:26:01.211Z,0.95
2019-05-21T18:28:31.822Z,1.10
2019-05-21T18:31:02.083Z,0.88
2019-05-21T18:33:32.973Z,0.90
2019-05-21T18:36:02.809Z,0.90
2019-05-21T18:38:33.778Z,0.80
2019-05-21T18:41:03.636Z,0.90
2019-05-21T18:43:33.544Z,0.90
2019-05-21T18:46:03.977Z,0.80
2019-05-21T18:48:33.837Z,1.10
2019-05-21T18:51:03.705Z,0.93
2019-05-21T18:53:33.912Z,0.90
2019-05-21T18:56:03.758Z,1.10
2019-05-21T18:58:33.545Z,1.70
2019-05-21T19:01:04.380Z,1.42
2019-05-21T19:03:34.246Z,1.65
2019-05-21T19:06:04.311Z,1.30
2019-05-21T19:08:34.172Z,1.30
2019-05-21T19:11:04.085Z,1.00
2019-05-21T19:13:33.926Z,1.20
2019-05-21T19:16:04.020Z,1.50
2019-05-21T19:18:33.896Z,1.60
2019-05-21T19:21:03.725Z,1.17
2019-05-21T19:23:34.774Z,1.40
2019-05-21T19:26:04.615Z,1.20
2019-05-21T19:28:35.528Z,1.30
2019-05-21T19:31:06.492Z,0.93
2019-05-21T19:33:36.492Z,0.90
2019-05-21T19:36:06.276Z,0.90
2019-05-21T19:38:37.247Z,0.82
2019-05-21T19:41:08.197Z,1.10
2019-05-21T19:43:38.211Z,0.90
2019-05-21T19:46:08.813Z,1.47
2019-05-21T19:48:38.630Z,1.62
2019-05-21T19:51:08.422Z,1.47
2019-05-21T19:53:41.013Z,0.85
2019-05-21T19:56:11.037Z,1.05
2019-05-21T19:58:41.368Z,1.20
2019-05-21T20:01:12.246Z,1.00
2019-05-21T20:03:42.317Z,1.00
2019-05-21T20:06:13.251Z,1.12
2019-05-21T20:08:43.804Z,1.15
2019-05-21T20:11:15.309Z,1.37
2019-05-21T20:13:46.199Z,0.68
2019-05-21T20:16:19.313Z,1.00
2019-05-21T20:18:49.118Z,1.00
2019-05-21T20:21:19.917Z,0.80
2019-05-21T20:23:52.321Z,1.07
2019-05-21T20:26:24.689Z,0.90
2019-05-21T20:28:54.746Z,1.00
2019-05-21T20:31:25.717Z,0.90
2019-05-21T20:33:58.454Z,1.60
2019-05-21T20:36:28.241Z,1.20
2019-05-21T20:38:59.487Z,0.98
2019-05-21T20:41:31.047Z,1.00
2019-05-21T20:44:02.162Z,0.90
2019-05-21T20:46:32.047Z,1.22
2019-05-21T20:49:01.897Z,0.72
2019-05-21T20:51:31.947Z,1.30
2019-05-21T20:54:02.495Z,1.20
2019-05-21T20:56:33.114Z,1.10
2019-05-21T20:59:02.906Z,1.25
2019-05-21T21:01:34.594Z,1.30
2019-05-21T21:04:05.068Z,1.22
2019-05-21T21:06:36.326Z,1.42
2019-05-21T21:09:10.514Z,1.17
2019-05-21T21:11:41.788Z,1.12
2019-05-21T21:14:18.369Z,1.20
2019-05-21T21:16:47.630Z,1.20
2019-05-21T21:19:17.426Z,1.15
2019-05-21T21:21:48.164Z,1.10
2019-05-21T21:24:18.264Z,1.00
2019-05-21T21:26:49.951Z,1.30
2019-05-21T21:29:19.766Z,1.42
2019-05-21T21:31:49.574Z,1.25
2019-05-21T21:34:19.610Z,1.10
2019-05-21T21:36:53.122Z,1.00
2019-05-21T21:39:22.527Z,1.20
2019-05-21T21:41:52.702Z,1.00
2019-05-21T21:44:33.539Z,1.10
2019-05-21T21:46:56.196Z,1.10
2019-05-21T21:49:28.667Z,0.78
2019-05-21T21:51:59.367Z,1.00
2019-05-21T21:54:29.667Z,0.90
2019-05-21T21:56:59.407Z,1.02
2019-05-21T21:59:29.225Z,1.10
2019-05-21T22:02:03.112Z,1.10
2019-05-21T22:04:34.337Z,0.88
2019-05-21T22:07:04.966Z,1.10
2019-05-21T22:09:35.363Z,1.00
2019-05-21T22:12:27.011Z,1.05
2019-05-21T22:15:00.448Z,1.17
2019-05-21T22:17:30.592Z,1.22
2019-05-21T22:20:00.504Z,1.25
2019-05-21T22:22:31.638Z,1.10
2019-05-21T22:25:03.392Z,1.05
2019-05-21T22:27:34.152Z,1.60
2019-05-21T22:30:06.081Z,1.40
2019-05-21T22:32:37.291Z,1.42
2019-05-21T22:35:07.265Z,1.50
2019-05-21T22:37:37.154Z,1.60
2019-05-21T22:40:08.322Z,1.60
2019-05-21T22:42:39.042Z,1.40
2019-05-21T22:45:10.490Z,1.70
2019-05-21T22:47:40.267Z,1.77
2019-05-21T22:50:10.743Z,2.10
2019-05-21T22:52:41.000Z,1.72
2019-05-21T22:55:12.495Z,2.00
2019-05-21T22:57:43.319Z,1.90
2019-05-21T23:00:14.556Z,1.77
2019-05-21T23:02:45.713Z,1.52
2019-05-21T23:05:16.693Z,1.47
2019-05-21T23:07:46.491Z,1.50
2019-05-21T23:10:17.421Z,1.40
2019-05-21T23:12:48.424Z,1.45
2019-05-21T23:15:24.821Z,1.70
2019-05-21T23:17:50.290Z,1.75
2019-05-21T23:20:21.376Z,1.87
2019-05-21T23:22:54.258Z,1.50
2019-05-21T23:25:25.389Z,1.90
2019-05-21T23:27:55.969Z,1.50
2019-05-21T23:30:28.387Z,1.72
2019-05-21T23:32:58.392Z,1.77
2019-05-21T23:35:28.794Z,1.92
2019-05-21T23:37:58.620Z,1.72
2019-05-21T23:40:28.496Z,2.20
2019-05-21T23:42:58.830Z,1.87
2019-05-21T23:45:29.351Z,2.20
2019-05-21T23:48:00.513Z,2.35
2019-05-21T23:50:31.797Z,2.30
2019-05-21T23:53:03.640Z,2.12
2019-05-21T23:55:34.002Z,1.67
2019-05-21T23:58:04.140Z,2.42
